sensor_id;sensor_type;location;lat;lon;timestamp;pressure;altitude;pressure_sealevel;temperature;humidity
49377;BME280;35253;34.688;33.040;2023-02-01T00:01:54;100206.09;;;11.68;100.00
49377;BME280;35253;34.688;33.040;2023-02-01T00:04:19;100196.47;;;11.91;100.00
49377;BME280;35253;34.688;33.040;2023-02-01T00:06:45;100192.91;;;12.03;100.00
49377;BME280;35253;34.688;33.040;2023-02-01T00:09:10;100191.56;;;11.98;100.00
49377;BME280;35253;34.688;33.040;2023-02-01T00:11:36;100190.06;;;11.94;100.00
49377;BME280;35253;34.688;33.040;2023-02-01T00:14:01;100196.72;;;11.88;100.00
49377;BME280;35253;34.688;33.040;2023-02-01T00:16:28;100185.41;;;11.85;100.00
49377;BME280;35253;34.688;33.040;2023-02-01T00:19:04;100183.50;;;11.74;100.00
49377;BME280;35253;34.688;33.040;2023-02-01T00:21:31;100183.88;;;11.93;100.00
49377;BME280;35253;34.688;33.040;2023-02-01T00:23:57;100178.06;;;11.99;100.00
49377;BME280;35253;34.688;33.040;2023-02-01T00:26:27;100172.97;;;11.96;100.00
49377;BME280;35253;34.688;33.040;2023-02-01T00:28:55;100171.91;;;11.86;100.00
49377;BME280;35253;34.688;33.040;2023-02-01T00:31:20;100178.44;;;11.82;100.00
49377;BME280;35253;34.688;33.040;2023-02-01T00:33:46;100174.06;;;11.81;100.00
49377;BME280;35253;34.688;33.040;2023-02-01T00:36:12;100165.31;;;11.79;100.00
49377;BME280;35253;34.688;33.040;2023-02-01T00:38:38;100164.44;;;11.91;100.00
49377;BME280;35253;34.688;33.040;2023-02-01T00:43:30;100160.19;;;11.89;100.00
49377;BME280;35253;34.688;33.040;2023-02-01T00:45:56;100157.59;;;11.87;100.00
49377;BME280;35253;34.688;33.040;2023-02-01T00:48:21;100162.31;;;11.84;100.00
49377;BME280;35253;34.688;33.040;2023-02-01T00:50:46;100161.75;;;11.91;100.00
49377;BME280;35253;34.688;33.040;2023-02-01T00:53:12;100161.22;;;11.86;100.00
49377;BME280;35253;34.688;33.040;2023-02-01T00:55:37;100158.84;;;11.94;100.00
49377;BME280;35253;34.688;33.040;2023-02-01T00:58:03;100154.25;;;11.96;100.00
49377;BME280;35253;34.688;33.040;2023-02-01T01:00:31;100153.97;;;11.88;100.00
49377;BME280;35253;34.688;33.040;2023-02-01T01:02:56;100155.88;;;11.86;100.00
49377;BME280;35253;34.688;33.040;2023-02-01T01:05:22;100149.50;;;11.89;100.00
49377;BME280;35253;34.688;33.040;2023-02-01T01:07:47;100145.09;;;11.88;100.00
49377;BME280;35253;34.688;33.040;2023-02-01T01:10:13;100137.47;;;11.94;100.00
49377;BME280;35253;34.688;33.040;2023-02-01T01:12:38;100137.47;;;11.94;100.00
49377;BME280;35253;34.688;33.040;2023-02-01T01:15:04;100130.66;;;11.90;100.00
49377;BME280;35253;34.688;33.040;2023-02-01T01:17:30;100132.47;;;11.90;100.00
49377;BME280;35253;34.688;33.040;2023-02-01T01:19:56;100128.41;;;11.97;100.00
49377;BME280;35253;34.688;33.040;2023-02-01T01:22:21;100117.38;;;12.01;100.00
49377;BME280;35253;34.688;33.040;2023-02-01T01:24:47;100116.59;;;11.88;100.00
49377;BME280;35253;34.688;33.040;2023-02-01T01:27:12;100119.06;;;12.02;100.00
49377;BME280;35253;34.688;33.040;2023-02-01T01:29:37;100115.44;;;12.03;100.00
49377;BME280;35253;34.688;33.040;2023-02-01T01:32:03;100117.34;;;11.78;100.00
49377;BME280;35253;34.688;33.040;2023-02-01T01:34:28;100119.31;;;11.76;100.00
49377;BME280;35253;34.688;33.040;2023-02-01T01:36:54;100127.84;;;11.55;100.00
49377;BME280;35253;34.688;33.040;2023-02-01T01:39:19;100118.59;;;11.48;100.00
49377;BME280;35253;34.688;33.040;2023-02-01T01:41:45;100126.91;;;11.44;100.00
49377;BME280;35253;34.688;33.040;2023-02-01T01:46:54;100112.13;;;11.76;100.00
49377;BME280;35253;34.688;33.040;2023-02-01T01:49:21;100113.78;;;11.90;100.00
49377;BME280;35253;34.688;33.040;2023-02-01T01:51:55;100114.44;;;11.93;100.00
49377;BME280;35253;34.688;33.040;2023-02-01T01:54:27;100109.09;;;11.93;100.00
49377;BME280;35253;34.688;33.040;2023-02-01T01:56:58;100104.38;;;11.97;100.00
49377;BME280;35253;34.688;33.040;2023-02-01T01:59:26;100115.44;;;12.03;100.00
49377;BME280;35253;34.688;33.040;2023-02-01T02:01:52;100108.22;;;11.93;100.00
49377;BME280;35253;34.688;33.040;2023-02-01T02:04:17;100114.19;;;11.96;100.00
49377;BME280;35253;34.688;33.040;2023-02-01T02:09:14;100097.41;;;11.94;100.00
49377;BME280;35253;34.688;33.040;2023-02-01T02:11:40;100096.63;;;12.05;100.00
49377;BME280;35253;34.688;33.040;2023-02-01T02:14:06;100087.25;;;11.99;100.00
49377;BME280;35253;34.688;33.040;2023-02-01T02:34:34;100082.72;;;11.76;100.00
49377;BME280;35253;34.688;33.040;2023-02-01T02:42:12;100090.66;;;12.01;100.00
49377;BME280;35253;34.688;33.040;2023-02-01T02:45:01;100089.41;;;11.94;100.00
49377;BME280;35253;34.688;33.040;2023-02-01T02:50:32;100093.84;;;12.06;100.00
49377;BME280;35253;34.688;33.040;2023-02-01T02:53:21;100099.19;;;12.06;100.00
49377;BME280;35253;34.688;33.040;2023-02-01T02:56:07;100088.16;;;12.11;100.00
49377;BME280;35253;34.688;33.040;2023-02-01T02:58:51;100086.63;;;12.19;100.00
49377;BME280;35253;34.688;33.040;2023-02-01T03:01:36;100087.78;;;12.15;100.00
49377;BME280;35253;34.688;33.040;2023-02-01T03:04:21;100092.69;;;12.22;100.00
49377;BME280;35253;34.688;33.040;2023-02-01T03:06:48;100095.28;;;12.34;100.00
49377;BME280;35253;34.688;33.040;2023-02-01T03:09:22;100108.44;;;11.90;100.00
49377;BME280;35253;34.688;33.040;2023-02-01T03:11:49;100100.59;;;11.99;100.00
49377;BME280;35253;34.688;33.040;2023-02-01T03:14:35;100103.88;;;12.03;100.00
49377;BME280;35253;34.688;33.040;2023-02-01T03:17:04;100100.25;;;12.04;100.00
49377;BME280;35253;34.688;33.040;2023-02-01T03:19:37;100103.34;;;12.10;100.00
49377;BME280;35253;34.688;33.040;2023-02-01T03:22:09;100099.66;;;12.00;100.00
49377;BME280;35253;34.688;33.040;2023-02-01T03:29:52;100101.41;;;12.12;100.00
49377;BME280;35253;34.688;33.040;2023-02-01T03:32:21;100101.91;;;12.17;100.00
49377;BME280;35253;34.688;33.040;2023-02-01T03:34:47;100093.63;;;12.09;100.00
49377;BME280;35253;34.688;33.040;2023-02-01T03:37:14;100088.44;;;12.19;100.00
49377;BME280;35253;34.688;33.040;2023-02-01T03:39:48;100095.59;;;12.18;100.00
49377;BME280;35253;34.688;33.040;2023-02-01T03:42:28;100101.47;;;12.24;100.00
49377;BME280;35253;34.688;33.040;2023-02-01T03:47:25;100098.00;;;12.10;100.00
49377;BME280;35253;34.688;33.040;2023-02-01T03:49:54;100088.41;;;11.84;100.00
49377;BME280;35253;34.688;33.040;2023-02-01T03:55:19;100091.16;;;11.83;100.00
49377;BME280;35253;34.688;33.040;2023-02-01T03:57:51;100088.66;;;11.56;100.00
49377;BME280;35253;34.688;33.040;2023-02-01T04:00:20;100081.41;;;11.58;100.00
49377;BME280;35253;34.688;33.040;2023-02-01T04:02:47;100088.59;;;11.81;100.00
49377;BME280;35253;34.688;33.040;2023-02-01T04:05:12;100088.22;;;11.62;100.00
49377;BME280;35253;34.688;33.040;2023-02-01T04:07:38;100087.38;;;11.61;100.00
49377;BME280;35253;34.688;33.040;2023-02-01T04:10:03;100087.56;;;11.71;100.00
49377;BME280;35253;34.688;33.040;2023-02-01T04:12:29;100090.84;;;11.87;100.00
49377;BME280;35253;34.688;33.040;2023-02-01T04:14:54;100084.34;;;12.02;100.00
49377;BME280;35253;34.688;33.040;2023-02-01T04:17:20;100084.84;;;12.07;100.00
49377;BME280;35253;34.688;33.040;2023-02-01T04:19:45;100075.78;;;12.10;100.00
49377;BME280;35253;34.688;33.040;2023-02-01T04:22:11;100077.59;;;12.09;100.00
49377;BME280;35253;34.688;33.040;2023-02-01T04:24:37;100086.56;;;12.08;100.00
49377;BME280;35253;34.688;33.040;2023-02-01T04:27:03;100090.13;;;11.72;100.00
49377;BME280;35253;34.688;33.040;2023-02-01T04:29:29;100083.09;;;11.59;100.00
49377;BME280;35253;34.688;33.040;2023-02-01T04:31:55;100084.13;;;11.69;100.00
49377;BME280;35253;34.688;33.040;2023-02-01T04:34:20;100082.22;;;11.71;100.00
49377;BME280;35253;34.688;33.040;2023-02-01T04:36:47;100075.63;;;11.51;100.00
49377;BME280;35253;34.688;33.040;2023-02-01T04:39:13;100079.09;;;11.41;100.00
49377;BME280;35253;34.688;33.040;2023-02-01T04:41:38;100083.28;;;11.19;100.00
49377;BME280;35253;34.688;33.040;2023-02-01T04:44:03;100078.72;;;10.96;100.00
49377;BME280;35253;34.688;33.040;2023-02-01T04:46:29;100090.47;;;10.94;100.00
49377;BME280;35253;34.688;33.040;2023-02-01T04:48:54;100096.25;;;10.75;100.00
49377;BME280;35253;34.688;33.040;2023-02-01T04:51:20;100093.13;;;10.94;100.00
49377;BME280;35253;34.688;33.040;2023-02-01T04:53:45;100109.44;;;11.02;100.00
49377;BME280;35253;34.688;33.040;2023-02-01T04:56:11;100112.63;;;11.07;100.00
49377;BME280;35253;34.688;33.040;2023-02-01T04:58:36;100114.34;;;11.20;100.00
49377;BME280;35253;34.688;33.040;2023-02-01T05:01:02;100106.22;;;11.35;100.00
49377;BME280;35253;34.688;33.040;2023-02-01T05:03:29;100111.63;;;11.46;100.00
49377;BME280;35253;34.688;33.040;2023-02-01T05:05:55;100110.44;;;11.50;100.00
49377;BME280;35253;34.688;33.040;2023-02-01T05:08:20;100103.53;;;11.47;100.00
49377;BME280;35253;34.688;33.040;2023-02-01T05:10:47;100105.00;;;11.51;100.00
49377;BME280;35253;34.688;33.040;2023-02-01T05:13:13;100098.59;;;11.54;100.00
49377;BME280;35253;34.688;33.040;2023-02-01T05:15:57;100101.78;;;11.59;100.00
49377;BME280;35253;34.688;33.040;2023-02-01T05:18:22;100102.66;;;11.47;100.00
49377;BME280;35253;34.688;33.040;2023-02-01T05:20:47;100104.09;;;11.40;100.00
49377;BME280;35253;34.688;33.040;2023-02-01T05:23:13;100105.09;;;11.50;100.00
49377;BME280;35253;34.688;33.040;2023-02-01T05:25:38;100114.31;;;11.33;100.00
49377;BME280;35253;34.688;33.040;2023-02-01T05:28:04;100108.09;;;11.45;100.00
49377;BME280;35253;34.688;33.040;2023-02-01T05:30:29;100106.38;;;11.57;100.00
49377;BME280;35253;34.688;33.040;2023-02-01T05:32:55;100102.53;;;11.61;100.00
49377;BME280;35253;34.688;33.040;2023-02-01T05:35:20;100110.91;;;11.44;100.00
49377;BME280;35253;34.688;33.040;2023-02-01T05:37:46;100114.75;;;11.40;100.00
49377;BME280;35253;34.688;33.040;2023-02-01T05:40:11;100104.91;;;11.53;100.00
49377;BME280;35253;34.688;33.040;2023-02-01T05:42:37;100103.19;;;11.52;100.00
49377;BME280;35253;34.688;33.040;2023-02-01T05:45:03;100100.28;;;11.55;100.00
49377;BME280;35253;34.688;33.040;2023-02-01T05:47:30;100104.91;;;11.53;100.00
49377;BME280;35253;34.688;33.040;2023-02-01T05:49:55;100110.63;;;11.72;100.00
49377;BME280;35253;34.688;33.040;2023-02-01T05:52:21;100114.25;;;11.58;100.00
49377;BME280;35253;34.688;33.040;2023-02-01T05:54:46;100114.91;;;11.62;100.00
49377;BME280;35253;34.688;33.040;2023-02-01T05:57:12;100104.53;;;11.70;100.00
49377;BME280;35253;34.688;33.040;2023-02-01T05:59:38;100104.00;;;11.65;100.00
49377;BME280;35253;34.688;33.040;2023-02-01T06:02:06;100108.81;;;11.60;100.00
49377;BME280;35253;34.688;33.040;2023-02-01T06:04:32;100104.88;;;11.65;100.00
49377;BME280;35253;34.688;33.040;2023-02-01T06:06:57;100114.25;;;11.71;100.00
49377;BME280;35253;34.688;33.040;2023-02-01T06:09:24;100117.69;;;11.73;100.00
49377;BME280;35253;34.688;33.040;2023-02-01T06:11:49;100123.03;;;11.73;100.00
49377;BME280;35253;34.688;33.040;2023-02-01T06:14:15;100119.78;;;11.81;100.00
49377;BME280;35253;34.688;33.040;2023-02-01T06:16:40;100130.94;;;11.74;100.00
49377;BME280;35253;34.688;33.040;2023-02-01T06:19:06;100121.63;;;11.80;100.00
49377;BME280;35253;34.688;33.040;2023-02-01T06:21:31;100121.50;;;11.69;100.00
49377;BME280;35253;34.688;33.040;2023-02-01T06:23:56;100128.66;;;11.68;100.00
49377;BME280;35253;34.688;33.040;2023-02-01T06:26:23;100140.34;;;11.80;100.00
49377;BME280;35253;34.688;33.040;2023-02-01T06:28:49;100132.63;;;11.63;100.00
49377;BME280;35253;34.688;33.040;2023-02-01T06:31:14;100145.53;;;11.69;100.00
49377;BME280;35253;34.688;33.040;2023-02-01T06:33:41;100143.28;;;11.88;100.00
49377;BME280;35253;34.688;33.040;2023-02-01T06:36:09;100140.09;;;11.70;100.00
49377;BME280;35253;34.688;33.040;2023-02-01T06:38:36;100145.69;;;11.80;100.00
49377;BME280;35253;34.688;33.040;2023-02-01T06:41:01;100145.88;;;11.64;100.00
49377;BME280;35253;34.688;33.040;2023-02-01T06:43:28;100145.25;;;11.61;100.00
49377;BME280;35253;34.688;33.040;2023-02-01T06:45:58;100149.72;;;11.60;100.00
49377;BME280;35253;34.688;33.040;2023-02-01T06:48:24;100153.69;;;11.55;100.00
49377;BME280;35253;34.688;33.040;2023-02-01T06:50:49;100163.63;;;11.53;100.00
49377;BME280;35253;34.688;33.040;2023-02-01T06:53:15;100173.25;;;11.43;100.00
49377;BME280;35253;34.688;33.040;2023-02-01T06:55:40;100168.34;;;11.37;100.00
49377;BME280;35253;34.688;33.040;2023-02-01T06:58:06;100179.31;;;11.32;100.00
49377;BME280;35253;34.688;33.040;2023-02-01T07:00:31;100184.88;;;11.42;100.00
49377;BME280;35253;34.688;33.040;2023-02-01T07:02:57;100180.72;;;11.38;100.00
49377;BME280;35253;34.688;33.040;2023-02-01T07:05:23;100180.19;;;11.58;100.00
49377;BME280;35253;34.688;33.040;2023-02-01T07:07:48;100189.22;;;11.68;100.00
49377;BME280;35253;34.688;33.040;2023-02-01T07:10:14;100187.97;;;11.73;100.00
49377;BME280;35253;34.688;33.040;2023-02-01T07:12:40;100182.84;;;11.70;100.00
49377;BME280;35253;34.688;33.040;2023-02-01T07:15:06;100183.50;;;11.74;100.00
49377;BME280;35253;34.688;33.040;2023-02-01T07:17:31;100189.69;;;11.62;100.00
49377;BME280;35253;34.688;33.040;2023-02-01T07:19:57;100189.03;;;11.71;100.00
49377;BME280;35253;34.688;33.040;2023-02-01T07:22:25;100181.16;;;11.57;100.00
49377;BME280;35253;34.688;33.040;2023-02-01T07:24:50;100177.50;;;11.58;100.00
49377;BME280;35253;34.688;33.040;2023-02-01T07:27:17;100177.19;;;11.62;100.00
49377;BME280;35253;34.688;33.040;2023-02-01T07:29:42;100186.03;;;11.63;100.00
49377;BME280;35253;34.688;33.040;2023-02-01T07:32:08;100191.81;;;11.57;100.00
49377;BME280;35253;34.688;33.040;2023-02-01T07:34:33;100184.88;;;11.42;100.00
49377;BME280;35253;34.688;33.040;2023-02-01T07:36:59;100197.59;;;11.38;100.00
49377;BME280;35253;34.688;33.040;2023-02-01T07:39:25;100194.06;;;11.38;100.00
49377;BME280;35253;34.688;33.040;2023-02-01T07:41:53;100199.72;;;11.33;100.00
49377;BME280;35253;34.688;33.040;2023-02-01T07:44:18;100206.56;;;11.24;100.00
49377;BME280;35253;34.688;33.040;2023-02-01T07:46:48;100208.50;;;11.22;100.00
49377;BME280;35253;34.688;33.040;2023-02-01T07:49:13;100207.41;;;11.25;100.00
49377;BME280;35253;34.688;33.040;2023-02-01T07:51:38;100201.53;;;11.32;100.00
49377;BME280;35253;34.688;33.040;2023-02-01T07:54:04;100195.25;;;11.34;100.00
49377;BME280;35253;34.688;33.040;2023-02-01T07:56:29;100192.16;;;11.40;100.00
49377;BME280;35253;34.688;33.040;2023-02-01T07:58:55;100201.22;;;11.37;100.00
49377;BME280;35253;34.688;33.040;2023-02-01T08:01:24;100191.06;;;11.42;100.00
49377;BME280;35253;34.688;33.040;2023-02-01T08:03:51;100196.63;;;11.52;100.00
49377;BME280;35253;34.688;33.040;2023-02-01T08:06:18;100192.69;;;11.45;100.00
49377;BME280;35253;34.688;33.040;2023-02-01T08:08:45;100194.06;;;11.50;100.00
49377;BME280;35253;34.688;33.040;2023-02-01T08:11:12;100186.28;;;11.47;100.00
49377;BME280;35253;34.688;33.040;2023-02-01T08:13:37;100191.50;;;11.61;100.00
49377;BME280;35253;34.688;33.040;2023-02-01T08:16:04;100189.38;;;11.54;100.00
49377;BME280;35253;34.688;33.040;2023-02-01T08:18:30;100189.69;;;11.62;100.00
49377;BME280;35253;34.688;33.040;2023-02-01T08:20:56;100184.22;;;11.63;100.00
49377;BME280;35253;34.688;33.040;2023-02-01T08:23:22;100189.88;;;11.71;100.00
49377;BME280;35253;34.688;33.040;2023-02-01T08:25:47;100182.84;;;11.83;100.00
49377;BME280;35253;34.688;33.040;2023-02-01T08:28:13;100184.13;;;11.78;100.00
49377;BME280;35253;34.688;33.040;2023-02-01T08:30:38;100186.03;;;11.88;100.00
49377;BME280;35253;34.688;33.040;2023-02-01T08:33:05;100188.16;;;11.83;100.00
49377;BME280;35253;34.688;33.040;2023-02-01T08:35:37;100186.22;;;11.85;100.00
49377;BME280;35253;34.688;33.040;2023-02-01T08:38:03;100180.47;;;11.91;100.00
49377;BME280;35253;34.688;33.040;2023-02-01T08:40:28;100178.31;;;11.96;100.00
49377;BME280;35253;34.688;33.040;2023-02-01T08:42:54;100182.78;;;11.96;100.00
49377;BME280;35253;34.688;33.040;2023-02-01T08:45:24;100177.72;;;11.80;100.00
49377;BME280;35253;34.688;33.040;2023-02-01T08:47:51;100185.84;;;11.53;100.00
49377;BME280;35253;34.688;33.040;2023-02-01T08:50:16;100178.34;;;11.58;100.00
49377;BME280;35253;34.688;33.040;2023-02-01T08:52:43;100182.53;;;11.75;100.00
49377;BME280;35253;34.688;33.040;2023-02-01T08:55:08;100171.25;;;11.95;100.00
49377;BME280;35253;34.688;33.040;2023-02-01T08:57:34;100173.88;;;11.71;100.00
49377;BME280;35253;34.688;33.040;2023-02-01T08:59:59;100174.88;;;11.94;100.00
49377;BME280;35253;34.688;33.040;2023-02-01T09:02:25;100170.47;;;12.06;100.00
49377;BME280;35253;34.688;33.040;2023-02-01T09:04:51;100154.97;;;12.11;100.00
49377;BME280;35253;34.688;33.040;2023-02-01T09:07:17;100156.09;;;12.43;100.00
49377;BME280;35253;34.688;33.040;2023-02-01T09:09:43;100154.94;;;12.58;100.00
49377;BME280;35253;34.688;33.040;2023-02-01T09:12:09;100148.75;;;12.58;100.00
49377;BME280;35253;34.688;33.040;2023-02-01T09:14:34;100138.03;;;12.58;100.00
49377;BME280;35253;34.688;33.040;2023-02-01T09:17:00;100141.94;;;12.65;100.00
49377;BME280;35253;34.688;33.040;2023-02-01T09:19:25;100128.31;;;12.57;100.00
49377;BME280;35253;34.688;33.040;2023-02-01T09:21:51;100130.44;;;12.41;100.00
49377;BME280;35253;34.688;33.040;2023-02-01T09:24:16;100122.09;;;12.22;100.00
49377;BME280;35253;34.688;33.040;2023-02-01T09:26:42;100106.81;;;12.24;100.00
49377;BME280;35253;34.688;33.040;2023-02-01T09:29:08;100112.69;;;12.16;100.00
49377;BME280;35253;34.688;33.040;2023-02-01T09:31:36;100123.00;;;12.09;100.00
49377;BME280;35253;34.688;33.040;2023-02-01T09:34:02;100114.03;;;12.10;100.00
49377;BME280;35253;34.688;33.040;2023-02-01T09:36:28;100099.34;;;12.16;100.00
49377;BME280;35253;34.688;33.040;2023-02-01T09:38:53;100088.38;;;12.43;100.00
49377;BME280;35253;34.688;33.040;2023-02-01T09:46:41;100057.31;;;12.64;100.00
49377;BME280;35253;34.688;33.040;2023-02-01T09:49:10;100060.03;;;12.75;100.00
49377;BME280;35253;34.688;33.040;2023-02-01T09:51:38;100059.31;;;12.84;100.00
49377;BME280;35253;34.688;33.040;2023-02-01T09:56:34;100078.13;;;12.26;100.00
49377;BME280;35253;34.688;33.040;2023-02-01T09:59:09;100087.47;;;11.96;100.00
49377;BME280;35253;34.688;33.040;2023-02-01T10:01:36;100094.16;;;11.78;100.00
49377;BME280;35253;34.688;33.040;2023-02-01T10:04:07;100087.31;;;11.87;100.00
49377;BME280;35253;34.688;33.040;2023-02-01T10:06:40;100080.81;;;11.78;100.00
49377;BME280;35253;34.688;33.040;2023-02-01T10:09:13;100086.88;;;11.93;100.00
49377;BME280;35253;34.688;33.040;2023-02-01T10:11:46;100083.59;;;11.40;100.00
49377;BME280;35253;34.688;33.040;2023-02-01T10:14:20;100096.19;;;11.25;100.00
49377;BME280;35253;34.688;33.040;2023-02-01T10:19:22;100092.97;;;11.33;100.00
49377;BME280;35253;34.688;33.040;2023-02-01T10:21:51;100095.84;;;11.43;100.00
49377;BME280;35253;34.688;33.040;2023-02-01T10:24:25;100097.03;;;11.39;100.00
49377;BME280;35253;34.688;33.040;2023-02-01T10:26:55;100098.94;;;11.37;100.00
49377;BME280;35253;34.688;33.040;2023-02-01T10:29:24;100101.84;;;11.34;100.00
49377;BME280;35253;34.688;33.040;2023-02-01T10:31:52;100105.78;;;11.41;100.00
49377;BME280;35253;34.688;33.040;2023-02-01T10:37:08;100106.97;;;11.11;100.00
49377;BME280;35253;34.688;33.040;2023-02-01T10:39:31;100104.97;;;10.77;100.00
49377;BME280;35253;34.688;33.040;2023-02-01T10:41:57;100123.94;;;10.60;100.00
49377;BME280;35253;34.688;33.040;2023-02-01T10:44:26;100118.19;;;10.66;100.00
49377;BME280;35253;34.688;33.040;2023-02-01T10:46:52;100122.47;;;10.81;100.00
49377;BME280;35253;34.688;33.040;2023-02-01T10:49:20;100110.28;;;10.77;100.00
49377;BME280;35253;34.688;33.040;2023-02-01T10:54:17;100081.28;;;10.85;100.00
49377;BME280;35253;34.688;33.040;2023-02-01T10:56:45;100091.94;;;10.85;100.00
49377;BME280;35253;34.688;33.040;2023-02-01T10:59:14;100082.34;;;10.95;100.00
49377;BME280;35253;34.688;33.040;2023-02-01T11:01:41;100083.59;;;11.15;100.00
49377;BME280;35253;34.688;33.040;2023-02-01T11:04:09;100063.53;;;11.35;100.00
49377;BME280;35253;34.688;33.040;2023-02-01T11:06:38;100048.22;;;11.37;100.00
49377;BME280;35253;34.688;33.040;2023-02-01T11:11:33;99981.31;;;11.87;100.00
49377;BME280;35253;34.688;33.040;2023-02-01T11:13:59;99992.19;;;12.08;100.00
49377;BME280;35253;34.688;33.040;2023-02-01T11:16:29;99974.38;;;12.19;100.00
49377;BME280;35253;34.688;33.040;2023-02-01T11:18:55;99981.09;;;12.36;100.00
49377;BME280;35253;34.688;33.040;2023-02-01T11:21:21;99972.25;;;12.58;100.00
49377;BME280;35253;34.688;33.040;2023-02-01T11:23:47;99971.28;;;13.15;100.00
49377;BME280;35253;34.688;33.040;2023-02-01T11:26:14;99970.47;;;13.78;100.00
49377;BME280;35253;34.688;33.040;2023-02-01T11:28:40;99970.72;;;14.38;100.00
49377;BME280;35253;34.688;33.040;2023-02-01T11:31:10;99979.91;;;15.06;100.00
49377;BME280;35253;34.688;33.040;2023-02-01T11:33:47;99976.72;;;15.22;100.00
49377;BME280;35253;34.688;33.040;2023-02-01T11:36:18;99981.81;;;15.74;100.00
49377;BME280;35253;34.688;33.040;2023-02-01T11:39:31;99985.31;;;15.65;100.00
49377;BME280;35253;34.688;33.040;2023-02-01T11:41:32;99992.69;;;15.73;100.00
49377;BME280;35253;34.688;33.040;2023-02-01T11:44:01;100001.50;;;14.95;100.00
49377;BME280;35253;34.688;33.040;2023-02-01T11:46:35;100027.13;;;14.78;100.00
49377;BME280;35253;34.688;33.040;2023-02-01T11:52:03;100021.94;;;13.92;100.00
49377;BME280;35253;34.688;33.040;2023-02-01T11:54:37;100026.25;;;14.16;100.00
49377;BME280;35253;34.688;33.040;2023-02-01T12:04:48;100031.72;;;14.46;100.00
49377;BME280;35253;34.688;33.040;2023-02-01T12:07:19;100027.66;;;14.52;100.00
49377;BME280;35253;34.688;33.040;2023-02-01T12:09:50;100032.78;;;15.15;100.00
49377;BME280;35253;34.688;33.040;2023-02-01T12:12:25;100036.63;;;14.92;100.00
49377;BME280;35253;34.688;33.040;2023-02-01T12:15:02;100036.31;;;14.55;100.00
49377;BME280;35253;34.688;33.040;2023-02-01T12:25:17;100061.50;;;13.68;100.00
49377;BME280;35253;34.688;33.040;2023-02-01T12:30:36;100071.75;;;13.41;100.00
49377;BME280;35253;34.688;33.040;2023-02-01T12:33:44;100079.78;;;13.41;100.00
49377;BME280;35253;34.688;33.040;2023-02-01T12:38:34;100075.31;;;11.92;100.00
49377;BME280;35253;34.688;33.040;2023-02-01T12:43:56;100128.97;;;11.27;100.00
49377;BME280;35253;34.688;33.040;2023-02-01T12:46:26;100145.03;;;10.63;100.00
49377;BME280;35253;34.688;33.040;2023-02-01T12:51:29;100162.84;;;9.82;100.00
49377;BME280;35253;34.688;33.040;2023-02-01T12:54:00;100191.34;;;9.94;100.00
49377;BME280;35253;34.688;33.040;2023-02-01T12:56:37;100186.31;;;9.89;100.00
49377;BME280;35253;34.688;33.040;2023-02-01T12:59:05;100203.94;;;9.78;100.00
49377;BME280;35253;34.688;33.040;2023-02-01T13:01:57;100218.88;;;9.52;100.00
49377;BME280;35253;34.688;33.040;2023-02-01T13:04:30;100225.44;;;9.61;100.00
49377;BME280;35253;34.688;33.040;2023-02-01T13:07:12;100237.00;;;9.45;100.00
49377;BME280;35253;34.688;33.040;2023-02-01T13:09:45;100236.63;;;9.66;100.00
49377;BME280;35253;34.688;33.040;2023-02-01T13:12:14;100239.56;;;9.33;100.00
49377;BME280;35253;34.688;33.040;2023-02-01T13:14:46;100242.84;;;9.22;100.00
49377;BME280;35253;34.688;33.040;2023-02-01T13:17:15;100261.09;;;9.14;100.00
49377;BME280;35253;34.688;33.040;2023-02-01T13:19:49;100266.22;;;9.17;100.00
49377;BME280;35253;34.688;33.040;2023-02-01T13:22:19;100275.88;;;9.04;100.00
49377;BME280;35253;34.688;33.040;2023-02-01T13:24:52;100284.13;;;9.29;100.00
49377;BME280;35253;34.688;33.040;2023-02-01T13:27:18;100293.47;;;8.91;100.00
49377;BME280;35253;34.688;33.040;2023-02-01T13:29:52;100305.50;;;8.82;100.00
49377;BME280;35253;34.688;33.040;2023-02-01T13:39:48;100310.06;;;8.65;100.00
49377;BME280;35253;34.688;33.040;2023-02-01T13:42:22;100313.53;;;8.67;100.00
49377;BME280;35253;34.688;33.040;2023-02-01T13:47:24;100321.41;;;8.52;100.00
49377;BME280;35253;34.688;33.040;2023-02-01T13:49:52;100308.22;;;8.67;100.00
49377;BME280;35253;34.688;33.040;2023-02-01T13:52:29;100306.78;;;8.91;100.00
49377;BME280;35253;34.688;33.040;2023-02-01T13:55:03;100303.38;;;8.73;100.00
49377;BME280;35253;34.688;33.040;2023-02-01T13:57:39;100299.94;;;8.87;100.00
49377;BME280;35253;34.688;33.040;2023-02-01T14:00:07;100294.63;;;8.87;100.00
49377;BME280;35253;34.688;33.040;2023-02-01T14:05:10;100279.38;;;9.04;100.00
49377;BME280;35253;34.688;33.040;2023-02-01T14:07:36;100286.81;;;9.14;100.00
49377;BME280;35253;34.688;33.040;2023-02-01T14:21:21;100277.09;;;9.57;100.00
49377;BME280;35253;34.688;33.040;2023-02-01T14:26:20;100283.00;;;9.47;100.00
49377;BME280;35253;34.688;33.040;2023-02-01T14:31:25;100289.41;;;9.15;100.00
49377;BME280;35253;34.688;33.040;2023-02-01T14:33:58;100289.00;;;9.07;100.00
49377;BME280;35253;34.688;33.040;2023-02-01T14:36:24;100294.06;;;8.96;100.00